sensor_id;sensor_type;location;lat;lon;timestamp;pressure;altitude;pressure_sealevel;temperature;humidity
79639;BME280;69114;49.108;8.280;2023-04-08T00:00:26;100853.09;;;8.14;73.73
79639;BME280;69114;49.108;8.280;2023-04-08T00:02:51;100853.34;;;8.18;74.02
79639;BME280;69114;49.108;8.280;2023-04-08T00:05:16;100850.00;;;8.16;72.95
79639;BME280;69114;49.108;8.280;2023-04-08T00:07:42;100852.53;;;8.17;73.02
79639;BME280;69114;49.108;8.280;2023-04-08T00:10:08;100855.00;;;8.19;72.76
79639;BME280;69114;49.108;8.280;2023-04-08T00:12:34;100851.09;;;8.20;73.25
79639;BME280;69114;49.108;8.280;2023-04-08T00:14:59;100848.31;;;8.25;72.02
79639;BME280;69114;49.108;8.280;2023-04-08T00:17:25;100855.53;;;8.26;72.42
79639;BME280;69114;49.108;8.280;2023-04-08T00:19:51;100856.94;;;8.24;72.31
79639;BME280;69114;49.108;8.280;2023-04-08T00:22:16;100865.78;;;8.26;71.85
79639;BME280;69114;49.108;8.280;2023-04-08T00:24:42;100871.06;;;8.27;72.28
79639;BME280;69114;49.108;8.280;2023-04-08T00:27:07;100865.25;;;8.24;72.42
79639;BME280;69114;49.108;8.280;2023-04-08T00:29:33;100872.47;;;8.25;72.06
79639;BME280;69114;49.108;8.280;2023-04-08T00:31:58;100864.69;;;8.27;71.94
79639;BME280;69114;49.108;8.280;2023-04-08T00:34:23;100859.69;;;8.29;72.05
79639;BME280;69114;49.108;8.280;2023-04-08T00:36:49;100868.56;;;8.26;72.13
79639;BME280;69114;49.108;8.280;2023-04-08T00:39:14;100863.03;;;8.20;72.74
79639;BME280;69114;49.108;8.280;2023-04-08T00:41:39;100865.78;;;8.26;73.36
79639;BME280;69114;49.108;8.280;2023-04-08T00:44:05;100860.78;;;8.33;71.53
79639;BME280;69114;49.108;8.280;2023-04-08T00:46:35;100865.22;;;8.29;71.28
79639;BME280;69114;49.108;8.280;2023-04-08T00:49:00;100859.16;;;8.27;71.52
79639;BME280;69114;49.108;8.280;2023-04-08T00:51:28;100863.00;;;8.26;71.50
79639;BME280;69114;49.108;8.280;2023-04-08T00:53:54;100867.22;;;8.23;72.34
79639;BME280;69114;49.108;8.280;2023-04-08T00:56:20;100868.84;;;8.24;72.61
79639;BME280;69114;49.108;8.280;2023-04-08T00:58:46;100865.22;;;8.29;72.27
79639;BME280;69114;49.108;8.280;2023-04-08T01:01:41;100861.38;;;8.25;73.29
79639;BME280;69114;49.108;8.280;2023-04-08T01:04:38;100866.38;;;8.23;72.79
79639;BME280;69114;49.108;8.280;2023-04-08T01:07:18;100863.31;;;8.24;71.98
79639;BME280;69114;49.108;8.280;2023-04-08T01:09:51;100863.59;;;8.23;72.58
79639;BME280;69114;49.108;8.280;2023-04-08T01:12:25;100876.88;;;8.26;73.65
79639;BME280;69114;49.108;8.280;2023-04-08T01:15:00;100875.81;;;8.16;72.94
79639;BME280;69114;49.108;8.280;2023-04-08T01:17:28;100869.44;;;8.16;73.77
79639;BME280;69114;49.108;8.280;2023-04-08T01:19:56;100875.00;;;8.11;73.56
79639;BME280;69114;49.108;8.280;2023-04-08T01:22:28;100877.53;;;8.12;73.99
79639;BME280;69114;49.108;8.280;2023-04-08T01:25:04;100875.56;;;8.18;73.29
79639;BME280;69114;49.108;8.280;2023-04-08T01:27:32;100870.00;;;8.18;74.10
79639;BME280;69114;49.108;8.280;2023-04-08T01:29:58;100878.59;;;8.16;74.25
79639;BME280;69114;49.108;8.280;2023-04-08T01:32:25;100870.84;;;8.13;74.25
79639;BME280;69114;49.108;8.280;2023-04-08T01:34:53;100873.63;;;8.13;73.85
79639;BME280;69114;49.108;8.280;2023-04-08T01:37:19;100875.00;;;8.11;74.30
79639;BME280;69114;49.108;8.280;2023-04-08T01:39:47;100859.78;;;8.08;74.15
79639;BME280;69114;49.108;8.280;2023-04-08T01:42:14;100867.81;;;8.10;74.35
79639;BME280;69114;49.108;8.280;2023-04-08T01:44:40;100867.81;;;8.10;74.74
79639;BME280;69114;49.108;8.280;2023-04-08T01:47:08;100864.44;;;8.18;73.54
79639;BME280;69114;49.108;8.280;2023-04-08T01:49:35;100867.50;;;8.16;74.07
79639;BME280;69114;49.108;8.280;2023-04-08T01:52:02;100864.19;;;8.09;74.85
79639;BME280;69114;49.108;8.280;2023-04-08T01:54:29;100858.13;;;8.07;74.59
79639;BME280;69114;49.108;8.280;2023-04-08T01:56:55;100861.97;;;8.06;75.21
79639;BME280;69114;49.108;8.280;2023-04-08T01:59:23;100863.41;;;8.04;75.54
79639;BME280;69114;49.108;8.280;2023-04-08T02:01:54;100858.66;;;8.04;75.81
79639;BME280;69114;49.108;8.280;2023-04-08T02:04:20;100868.34;;;8.07;75.70
79639;BME280;69114;49.108;8.280;2023-04-08T02:06:45;100863.66;;;8.02;75.80
79639;BME280;69114;49.108;8.280;2023-04-08T02:09:11;100862.56;;;8.03;74.69
79639;BME280;69114;49.108;8.280;2023-04-08T02:11:36;100864.19;;;8.09;74.59
79639;BME280;69114;49.108;8.280;2023-04-08T02:14:01;100857.75;;;8.24;72.82
79639;BME280;69114;49.108;8.280;2023-04-08T02:16:34;100866.09;;;8.24;72.81
79639;BME280;69114;49.108;8.280;2023-04-08T02:19:14;100867.50;;;8.16;73.78
79639;BME280;69114;49.108;8.280;2023-04-08T02:21:46;100867.50;;;8.16;73.62
79639;BME280;69114;49.108;8.280;2023-04-08T02:24:13;100865.84;;;8.15;73.73
79639;BME280;69114;49.108;8.280;2023-04-08T02:26:42;100858.63;;;8.14;73.04
79639;BME280;69114;49.108;8.280;2023-04-08T02:29:11;100865.00;;;8.20;73.60
79639;BME280;69114;49.108;8.280;2023-04-08T02:31:40;100866.09;;;8.19;73.24
79639;BME280;69114;49.108;8.280;2023-04-08T02:34:08;100866.94;;;8.19;73.37
79639;BME280;69114;49.108;8.280;2023-04-08T02:36:34;100858.59;;;8.19;73.81
79639;BME280;69114;49.108;8.280;2023-04-08T02:39:01;100861.69;;;8.18;73.34
79639;BME280;69114;49.108;8.280;2023-04-08T02:41:27;100861.94;;;8.16;73.90
79639;BME280;69114;49.108;8.280;2023-04-08T02:43:53;100865.84;;;8.15;73.79
79639;BME280;69114;49.108;8.280;2023-04-08T02:46:19;100865.28;;;8.18;73.72
79639;BME280;69114;49.108;8.280;2023-04-08T02:48:45;100866.94;;;8.19;73.36
79639;BME280;69114;49.108;8.280;2023-04-08T02:51:10;100865.84;;;8.15;73.58
79639;BME280;69114;49.108;8.280;2023-04-08T02:53:35;100868.59;;;8.15;74.20
79639;BME280;69114;49.108;8.280;2023-04-08T02:56:01;100867.50;;;8.11;73.45
79639;BME280;69114;49.108;8.280;2023-04-08T02:58:26;100870.88;;;8.08;73.51
79639;BME280;69114;49.108;8.280;2023-04-08T03:00:52;100872.25;;;8.06;73.73
79639;BME280;69114;49.108;8.280;2023-04-08T03:03:17;100863.66;;;8.07;74.48
79639;BME280;69114;49.108;8.280;2023-04-08T03:05:42;100866.97;;;8.09;74.07
79639;BME280;69114;49.108;8.280;2023-04-08T03:08:08;100863.38;;;8.09;74.60
79639;BME280;69114;49.108;8.280;2023-04-08T03:10:33;100870.31;;;8.06;74.55
79639;BME280;69114;49.108;8.280;2023-04-08T03:12:58;100866.16;;;8.09;74.58
79639;BME280;69114;49.108;8.280;2023-04-08T03:15:24;100874.19;;;8.10;74.16
79639;BME280;69114;49.108;8.280;2023-04-08T03:17:49;100870.03;;;8.08;73.66
79639;BME280;69114;49.108;8.280;2023-04-08T03:20:15;100865.03;;;8.05;74.07
79639;BME280;69114;49.108;8.280;2023-04-08T03:22:40;100870.06;;;8.03;74.38
79639;BME280;69114;49.108;8.280;2023-04-08T03:25:06;100868.94;;;8.04;74.48
79639;BME280;69114;49.108;8.280;2023-04-08T03:27:31;100870.63;;;8.00;74.25
79639;BME280;69114;49.108;8.280;2023-04-08T03:29:57;100867.59;;;7.91;74.42
79639;BME280;69114;49.108;8.280;2023-04-08T03:32:23;100875.63;;;7.87;75.19
79639;BME280;69114;49.108;8.280;2023-04-08T03:34:48;100875.09;;;7.80;75.22
79639;BME280;69114;49.108;8.280;2023-04-08T03:37:16;100875.13;;;7.70;75.61
79639;BME280;69114;49.108;8.280;2023-04-08T03:39:41;100872.09;;;7.61;75.39
79639;BME280;69114;49.108;8.280;2023-04-08T03:42:06;100879.84;;;7.54;76.20
79639;BME280;69114;49.108;8.280;2023-04-08T03:44:32;100871.53;;;7.44;76.90
79639;BME280;69114;49.108;8.280;2023-04-08T03:46:57;100874.31;;;7.34;76.57
79639;BME280;69114;49.108;8.280;2023-04-08T03:49:22;100870.16;;;7.26;77.15
79639;BME280;69114;49.108;8.280;2023-04-08T03:51:49;100883.16;;;7.10;78.26
79639;BME280;69114;49.108;8.280;2023-04-08T03:54:14;100880.94;;;7.02;78.19
79639;BME280;69114;49.108;8.280;2023-04-08T03:56:40;100887.88;;;6.89;78.90
79639;BME280;69114;49.108;8.280;2023-04-08T03:59:05;100879.25;;;6.81;79.55
79639;BME280;69114;49.108;8.280;2023-04-08T04:01:30;100879.81;;;6.88;79.15
79639;BME280;69114;49.108;8.280;2023-04-08T04:03:56;100878.16;;;6.87;79.13
79639;BME280;69114;49.108;8.280;2023-04-08T04:06:22;100875.38;;;6.77;79.85
79639;BME280;69114;49.108;8.280;2023-04-08T04:08:47;100882.03;;;6.76;79.46
79639;BME280;69114;49.108;8.280;2023-04-08T04:11:14;100879.78;;;6.73;79.66
79639;BME280;69114;49.108;8.280;2023-04-08T04:13:39;100876.72;;;6.64;79.77
79639;BME280;69114;49.108;8.280;2023-04-08T04:16:05;100882.53;;;6.62;79.72
79639;BME280;69114;49.108;8.280;2023-04-08T04:18:30;100882.25;;;6.59;80.08
79639;BME280;69114;49.108;8.280;2023-04-08T04:20:55;100882.81;;;6.56;80.44
79639;BME280;69114;49.108;8.280;2023-04-08T04:23:21;100886.38;;;6.51;80.35
79639;BME280;69114;49.108;8.280;2023-04-08T04:25:48;100888.53;;;6.34;80.77
79639;BME280;69114;49.108;8.280;2023-04-08T04:28:14;100887.75;;;6.49;80.53
79639;BME280;69114;49.108;8.280;2023-04-08T04:30:39;100888.53;;;6.39;80.67
79639;BME280;69114;49.108;8.280;2023-04-08T04:33:05;100890.78;;;6.42;81.26
79639;BME280;69114;49.108;8.280;2023-04-08T04:35:34;100885.59;;;6.61;80.09
79639;BME280;69114;49.108;8.280;2023-04-08T04:37:59;100885.31;;;6.62;79.85
79639;BME280;69114;49.108;8.280;2023-04-08T04:40:24;100890.00;;;6.62;80.14
79639;BME280;69114;49.108;8.280;2023-04-08T04:42:50;100883.06;;;6.59;80.35
79639;BME280;69114;49.108;8.280;2023-04-08T04:45:15;100893.84;;;6.51;80.50
79639;BME280;69114;49.108;8.280;2023-04-08T04:47:40;100898.00;;;6.58;80.63
79639;BME280;69114;49.108;8.280;2023-04-08T04:50:06;100883.63;;;6.56;80.87
79639;BME280;69114;49.108;8.280;2023-04-08T04:52:32;100896.63;;;6.51;81.15
79639;BME280;69114;49.108;8.280;2023-04-08T04:54:57;100899.41;;;6.61;80.76
79639;BME280;69114;49.108;8.280;2023-04-08T04:57:23;100890.84;;;6.73;80.51
79639;BME280;69114;49.108;8.280;2023-04-08T04:59:48;100911.34;;;6.66;80.78
79639;BME280;69114;49.108;8.280;2023-04-08T05:02:14;100900.25;;;6.66;81.16
79639;BME280;69114;49.108;8.280;2023-04-08T05:04:39;100898.31;;;6.67;81.09
79639;BME280;69114;49.108;8.280;2023-04-08T05:07:05;100906.34;;;6.74;80.89
79639;BME280;69114;49.108;8.280;2023-04-08T05:09:30;100910.53;;;6.81;80.57
79639;BME280;69114;49.108;8.280;2023-04-08T05:11:55;100911.38;;;6.87;80.75
79639;BME280;69114;49.108;8.280;2023-04-08T05:14:21;100911.91;;;6.74;81.49
79639;BME280;69114;49.108;8.280;2023-04-08T05:16:46;100915.81;;;6.83;80.97
79639;BME280;69114;49.108;8.280;2023-04-08T05:19:12;100914.66;;;6.68;81.98
79639;BME280;69114;49.108;8.280;2023-04-08T05:21:37;100921.00;;;6.69;81.63
79639;BME280;69114;49.108;8.280;2023-04-08T05:24:02;100927.94;;;6.66;81.82
79639;BME280;69114;49.108;8.280;2023-04-08T05:26:28;100931.84;;;6.76;81.76
79639;BME280;69114;49.108;8.280;2023-04-08T05:28:53;100926.88;;;6.83;81.69
79639;BME280;69114;49.108;8.280;2023-04-08T05:31:19;100925.25;;;7.02;80.64
79639;BME280;69114;49.108;8.280;2023-04-08T05:33:45;100929.16;;;7.06;80.41
79639;BME280;69114;49.108;8.280;2023-04-08T05:36:11;100930.81;;;7.07;80.17
79639;BME280;69114;49.108;8.280;2023-04-08T05:38:37;100928.91;;;7.08;80.33
79639;BME280;69114;49.108;8.280;2023-04-08T05:41:03;100928.59;;;7.04;80.36
79639;BME280;69114;49.108;8.280;2023-04-08T05:43:28;100930.81;;;7.07;81.05
79639;BME280;69114;49.108;8.280;2023-04-08T05:45:54;100935.53;;;7.12;80.71
79639;BME280;69114;49.108;8.280;2023-04-08T05:48:19;100943.00;;;7.16;81.05
79639;BME280;69114;49.108;8.280;2023-04-08T05:50:45;100945.25;;;7.25;80.96
79639;BME280;69114;49.108;8.280;2023-04-08T05:53:12;100947.47;;;7.33;80.48
79639;BME280;69114;49.108;8.280;2023-04-08T05:55:38;100947.78;;;7.36;80.50
79639;BME280;69114;49.108;8.280;2023-04-08T05:58:04;100944.72;;;7.38;80.11
79639;BME280;69114;49.108;8.280;2023-04-08T06:00:29;100946.38;;;7.39;80.36
79639;BME280;69114;49.108;8.280;2023-04-08T06:02:54;100947.19;;;7.44;80.48
79639;BME280;69114;49.108;8.280;2023-04-08T06:05:20;100949.44;;;7.48;79.53
79639;BME280;69114;49.108;8.280;2023-04-08T06:07:46;100949.72;;;7.56;80.31
79639;BME280;69114;49.108;8.280;2023-04-08T06:10:11;100948.59;;;7.62;79.40
79639;BME280;69114;49.108;8.280;2023-04-08T06:12:36;100953.59;;;7.70;79.53
79639;BME280;69114;49.108;8.280;2023-04-08T06:15:06;100958.00;;;7.82;79.33
79639;BME280;69114;49.108;8.280;2023-04-08T06:17:32;100964.66;;;7.91;78.46
79639;BME280;69114;49.108;8.280;2023-04-08T06:19:57;100960.78;;;7.92;78.42
79639;BME280;69114;49.108;8.280;2023-04-08T06:22:22;100962.44;;;8.03;77.60
79639;BME280;69114;49.108;8.280;2023-04-08T06:24:48;100968.25;;;8.07;77.56
79639;BME280;69114;49.108;8.280;2023-04-08T06:27:14;100962.13;;;8.15;77.10
79639;BME280;69114;49.108;8.280;2023-04-08T06:29:40;100963.78;;;8.16;77.22
79639;BME280;69114;49.108;8.280;2023-04-08T06:32:05;100970.16;;;8.27;75.81
79639;BME280;69114;49.108;8.280;2023-04-08T06:34:30;100967.38;;;8.37;76.01
79639;BME280;69114;49.108;8.280;2023-04-08T06:36:56;100966.56;;;8.36;74.03
79639;BME280;69114;49.108;8.280;2023-04-08T06:39:22;100972.13;;;8.36;73.73
79639;BME280;69114;49.108;8.280;2023-04-08T06:41:47;100973.47;;;8.34;73.70
79639;BME280;69114;49.108;8.280;2023-04-08T06:44:12;100979.84;;;8.34;73.61
79639;BME280;69114;49.108;8.280;2023-04-08T06:46:38;100977.66;;;8.36;73.24
79639;BME280;69114;49.108;8.280;2023-04-08T06:49:03;100978.47;;;8.32;74.15
79639;BME280;69114;49.108;8.280;2023-04-08T06:51:31;100985.97;;;8.41;73.32
79639;BME280;69114;49.108;8.280;2023-04-08T06:53:56;100985.13;;;8.51;74.61
79639;BME280;69114;49.108;8.280;2023-04-08T06:56:22;100989.00;;;8.55;73.33
79639;BME280;69114;49.108;8.280;2023-04-08T06:58:47;100986.22;;;8.55;73.42
79639;BME280;69114;49.108;8.280;2023-04-08T07:01:12;100995.66;;;8.59;73.24
79639;BME280;69114;49.108;8.280;2023-04-08T07:03:40;100993.66;;;8.70;73.36
79639;BME280;69114;49.108;8.280;2023-04-08T07:06:05;100991.13;;;8.79;72.61
79639;BME280;69114;49.108;8.280;2023-04-08T07:08:30;100993.91;;;8.79;72.15
79639;BME280;69114;49.108;8.280;2023-04-08T07:10:56;100999.50;;;8.63;72.80
79639;BME280;69114;49.108;8.280;2023-04-08T07:13:21;100991.69;;;8.76;72.78
79639;BME280;69114;49.108;8.280;2023-04-08T07:15:47;101000.44;;;9.08;71.64
79639;BME280;69114;49.108;8.280;2023-04-08T07:18:12;101003.88;;;9.34;70.34
79639;BME280;69114;49.108;8.280;2023-04-08T07:20:38;101003.00;;;9.39;70.55
79639;BME280;69114;49.108;8.280;2023-04-08T07:23:03;101001.44;;;9.28;69.56
79639;BME280;69114;49.108;8.280;2023-04-08T07:25:29;100998.50;;;9.48;70.00
79639;BME280;69114;49.108;8.280;2023-04-08T07:27:54;101000.63;;;9.61;69.18
79639;BME280;69114;49.108;8.280;2023-04-08T07:30:20;100997.44;;;9.39;69.05
79639;BME280;69114;49.108;8.280;2023-04-08T07:32:46;101002.44;;;8.97;69.53
79639;BME280;69114;49.108;8.280;2023-04-08T07:35:11;100999.88;;;9.01;69.68
79639;BME280;69114;49.108;8.280;2023-04-08T07:37:36;101010.31;;;9.24;68.98
79639;BME280;69114;49.108;8.280;2023-04-08T07:40:02;101011.06;;;9.45;67.83
79639;BME280;69114;49.108;8.280;2023-04-08T07:42:27;101002.25;;;9.28;67.98
79639;BME280;69114;49.108;8.280;2023-04-08T07:44:53;101009.78;;;9.22;68.38
79639;BME280;69114;49.108;8.280;2023-04-08T07:47:19;101008.34;;;9.30;68.63
79639;BME280;69114;49.108;8.280;2023-04-08T07:49:47;101016.00;;;9.48;67.89
79639;BME280;69114;49.108;8.280;2023-04-08T07:52:12;101018.06;;;9.33;68.17
79639;BME280;69114;49.108;8.280;2023-04-08T07:54:38;101011.66;;;9.77;66.80
79639;BME280;69114;49.108;8.280;2023-04-08T07:57:03;101005.84;;;10.07;66.09
79639;BME280;69114;49.108;8.280;2023-04-08T07:59:29;101012.50;;;10.06;65.10
79639;BME280;69114;49.108;8.280;2023-04-08T08:01:55;101012.72;;;9.81;65.92
79639;BME280;69114;49.108;8.280;2023-04-08T08:04:20;101018.19;;;9.91;65.92
79639;BME280;69114;49.108;8.280;2023-04-08T08:06:46;101027.94;;;10.28;66.13
79639;BME280;69114;49.108;8.280;2023-04-08T08:09:12;101021.19;;;10.34;64.61
79639;BME280;69114;49.108;8.280;2023-04-08T08:11:37;101035.47;;;10.22;64.74
79639;BME280;69114;49.108;8.280;2023-04-08T08:14:03;101037.13;;;10.23;64.93
79639;BME280;69114;49.108;8.280;2023-04-08T08:16:29;101033.63;;;10.12;65.29
79639;BME280;69114;49.108;8.280;2023-04-08T08:18:54;101029.59;;;10.23;65.10
79639;BME280;69114;49.108;8.280;2023-04-08T08:21:20;101029.34;;;10.25;64.39
79639;BME280;69114;49.108;8.280;2023-04-08T08:23:45;101040.16;;;10.32;63.76
79639;BME280;69114;49.108;8.280;2023-04-08T08:26:11;101032.50;;;10.13;63.90
79639;BME280;69114;49.108;8.280;2023-04-08T08:28:37;101039.31;;;9.97;63.85
79639;BME280;69114;49.108;8.280;2023-04-08T08:31:03;101036.88;;;10.19;63.60
79639;BME280;69114;49.108;8.280;2023-04-08T08:33:30;101048.69;;;10.69;62.59
79639;BME280;69114;49.108;8.280;2023-04-08T08:35:55;101041.78;;;11.28;59.70
79639;BME280;69114;49.108;8.280;2023-04-08T08:38:22;101040.53;;;11.40;60.14
79639;BME280;69114;49.108;8.280;2023-04-08T08:40:53;101044.03;;;11.88;59.04
79639;BME280;69114;49.108;8.280;2023-04-08T08:43:19;101039.56;;;12.06;56.45
79639;BME280;69114;49.108;8.280;2023-04-08T08:45:47;101049.94;;;11.44;59.13
79639;BME280;69114;49.108;8.280;2023-04-08T08:48:12;101044.50;;;11.34;61.30
79639;BME280;69114;49.108;8.280;2023-04-08T08:50:37;101048.25;;;11.05;60.39
79639;BME280;69114;49.108;8.280;2023-04-08T08:53:03;101041.13;;;11.37;60.01
79639;BME280;69114;49.108;8.280;2023-04-08T08:55:32;101050.75;;;11.07;59.27
79639;BME280;69114;49.108;8.280;2023-04-08T08:58:03;101052.03;;;10.90;60.86
79639;BME280;69114;49.108;8.280;2023-04-08T09:00:33;101050.84;;;10.72;60.41
79639;BME280;69114;49.108;8.280;2023-04-08T09:03:13;101047.84;;;11.36;58.75
79639;BME280;69114;49.108;8.280;2023-04-08T09:06:00;101047.41;;;11.66;56.67
79639;BME280;69114;49.108;8.280;2023-04-08T09:08:29;101050.03;;;11.76;56.57
79639;BME280;69114;49.108;8.280;2023-04-08T09:11:18;101042.81;;;11.94;55.11
79639;BME280;69114;49.108;8.280;2023-04-08T09:13:55;101045.97;;;12.07;55.64
79639;BME280;69114;49.108;8.280;2023-04-08T09:16:21;101050.63;;;12.44;55.62
79639;BME280;69114;49.108;8.280;2023-04-08T09:18:48;101047.75;;;12.49;54.33
79639;BME280;69114;49.108;8.280;2023-04-08T09:21:17;101049.13;;;12.00;56.68
79639;BME280;69114;49.108;8.280;2023-04-08T09:23:47;101055.84;;;11.61;56.53
79639;BME280;69114;49.108;8.280;2023-04-08T09:26:22;101057.97;;;11.69;54.27
79639;BME280;69114;49.108;8.280;2023-04-08T09:28:59;101056.38;;;12.01;54.45
79639;BME280;69114;49.108;8.280;2023-04-08T09:31:27;101054.34;;;12.53;53.59
79639;BME280;69114;49.108;8.280;2023-04-08T09:33:57;101055.03;;;12.77;52.34
79639;BME280;69114;49.108;8.280;2023-04-08T09:36:23;101058.03;;;13.22;52.38
79639;BME280;69114;49.108;8.280;2023-04-08T09:38:50;101058.25;;;13.26;51.34
79639;BME280;69114;49.108;8.280;2023-04-08T09:41:18;101055.41;;;12.71;51.06
79639;BME280;69114;49.108;8.280;2023-04-08T09:46:15;101058.34;;;13.07;51.45
79639;BME280;69114;49.108;8.280;2023-04-08T09:48:48;101055.31;;;12.90;49.47
79639;BME280;69114;49.108;8.280;2023-04-08T09:51:15;101055.31;;;12.29;50.86
79639;BME280;69114;49.108;8.280;2023-04-08T09:53:46;101057.41;;;12.38;50.91
79639;BME280;69114;49.108;8.280;2023-04-08T09:56:13;101066.16;;;12.50;50.06
79639;BME280;69114;49.108;8.280;2023-04-08T09:58:46;101060.91;;;12.76;49.13
79639;BME280;69114;49.108;8.280;2023-04-08T10:01:13;101065.69;;;13.03;49.26
79639;BME280;69114;49.108;8.280;2023-04-08T10:03:47;101063.91;;;12.79;50.84
79639;BME280;69114;49.108;8.280;2023-04-08T10:06:15;101055.91;;;12.45;49.05
79639;BME280;69114;49.108;8.280;2023-04-08T10:08:41;101065.81;;;12.38;48.22
79639;BME280;69114;49.108;8.280;2023-04-08T10:11:07;101059.69;;;12.03;47.22
79639;BME280;69114;49.108;8.280;2023-04-08T10:13:33;101064.06;;;12.42;48.26
79639;BME280;69114;49.108;8.280;2023-04-08T10:16:22;101062.84;;;12.62;48.59
79639;BME280;69114;49.108;8.280;2023-04-08T10:18:54;101066.41;;;13.08;46.01
79639;BME280;69114;49.108;8.280;2023-04-08T10:21:37;101065.59;;;13.72;45.67
79639;BME280;69114;49.108;8.280;2023-04-08T10:24:09;101050.22;;;13.19;45.51
79639;BME280;69114;49.108;8.280;2023-04-08T10:26:37;101054.78;;;12.60;47.20
79639;BME280;69114;49.108;8.280;2023-04-08T10:31:51;101066.09;;;13.88;45.58
79639;BME280;69114;49.108;8.280;2023-04-08T10:34:21;101054.50;;;14.25;45.08
79639;BME280;69114;49.108;8.280;2023-04-08T10:36:49;101055.75;;;14.19;43.92
79639;BME280;69114;49.108;8.280;2023-04-08T10:39:15;101064.88;;;14.02;41.67
79639;BME280;69114;49.108;8.280;2023-04-08T10:41:48;101064.44;;;13.87;43.92
79639;BME280;69114;49.108;8.280;2023-04-08T10:44:22;101069.53;;;14.07;43.33
79639;BME280;69114;49.108;8.280;2023-04-08T10:46:49;101060.75;;;14.22;42.87
79639;BME280;69114;49.108;8.280;2023-04-08T10:49:15;101058.00;;;14.31;39.99
79639;BME280;69114;49.108;8.280;2023-04-08T10:51:44;101058.75;;;14.00;39.66
79639;BME280;69114;49.108;8.280;2023-04-08T10:54:14;101051.31;;;14.18;41.12
79639;BME280;69114;49.108;8.280;2023-04-08T10:56:48;101060.75;;;14.22;42.10
79639;BME280;69114;49.108;8.280;2023-04-08T10:59:27;101049.94;;;13.71;40.71
79639;BME280;69114;49.108;8.280;2023-04-08T11:01:52;101056.69;;;12.92;44.76
79639;BME280;69114;49.108;8.280;2023-04-08T11:04:19;101057.28;;;13.03;46.37
79639;BME280;69114;49.108;8.280;2023-04-08T11:06:45;101055.63;;;13.16;44.25
79639;BME280;69114;49.108;8.280;2023-04-08T11:09:12;101064.31;;;13.42;44.60
79639;BME280;69114;49.108;8.280;2023-04-08T11:11:39;101052.91;;;13.52;45.91
79639;BME280;69114;49.108;8.280;2023-04-08T11:14:05;101051.44;;;13.68;44.97
79639;BME280;69114;49.108;8.280;2023-04-08T11:16:31;101059.03;;;13.54;45.54
79639;BME280;69114;49.108;8.280;2023-04-08T11:18:56;101053.56;;;13.71;45.30
79639;BME280;69114;49.108;8.280;2023-04-08T11:21:22;101054.50;;;13.17;46.54
79639;BME280;69114;49.108;8.280;2023-04-08T11:23:49;101040.88;;;12.41;47.96
79639;BME280;69114;49.108;8.280;2023-04-08T11:26:15;101057.38;;;12.24;48.75
79639;BME280;69114;49.108;8.280;2023-04-08T11:28:41;101048.22;;;12.04;48.80
79639;BME280;69114;49.108;8.280;2023-04-08T11:31:07;101051.75;;;12.43;47.14
79639;BME280;69114;49.108;8.280;2023-04-08T11:33:33;101047.97;;;13.21;44.80
79639;BME280;69114;49.108;8.280;2023-04-08T11:36:00;101057.47;;;13.48;40.81
79639;BME280;69114;49.108;8.280;2023-04-08T11:38:25;101050.88;;;13.30;42.17
79639;BME280;69114;49.108;8.280;2023-04-08T11:40:57;101056.06;;;13.23;43.81
79639;BME280;69114;49.108;8.280;2023-04-08T11:43:24;101051.38;;;13.18;45.18
79639;BME280;69114;49.108;8.280;2023-04-08T11:45:50;101054.16;;;13.18;45.61
79639;BME280;69114;49.108;8.280;2023-04-08T11:48:16;101051.91;;;12.93;45.75
79639;BME280;69114;49.108;8.280;2023-04-08T11:50:42;101057.38;;;12.70;45.37
79639;BME280;69114;49.108;8.280;2023-04-08T11:53:24;101050.44;;;11.89;46.87
79639;BME280;69114;49.108;8.280;2023-04-08T11:55:49;101052.75;;;12.00;46.87
79639;BME280;69114;49.108;8.280;2023-04-08T11:58:15;101052.31;;;11.93;45.95
79639;BME280;69114;49.108;8.280;2023-04-08T12:00:41;101050.47;;;12.21;45.72
79639;BME280;69114;49.108;8.280;2023-04-08T12:03:08;101044.84;;;12.54;44.85
79639;BME280;69114;49.108;8.280;2023-04-08T12:05:33;101056.22;;;12.71;45.12
79639;BME280;69114;49.108;8.280;2023-04-08T12:07:59;101057.28;;;12.75;45.06
79639;BME280;69114;49.108;8.280;2023-04-08T12:10:24;101044.41;;;12.47;43.95
79639;BME280;69114;49.108;8.280;2023-04-08T12:12:50;101052.63;;;12.24;45.43
79639;BME280;69114;49.108;8.280;2023-04-08T12:15:15;101050.09;;;12.42;43.69
79639;BME280;69114;49.108;8.280;2023-04-08T12:17:41;101043.63;;;12.74;43.79
79639;BME280;69114;49.108;8.280;2023-04-08T12:20:08;101054.59;;;12.98;43.57
79639;BME280;69114;49.108;8.280;2023-04-08T12:22:34;101052.09;;;13.10;42.89
79639;BME280;69114;49.108;8.280;2023-04-08T12:24:59;101044.03;;;13.08;42.68
79639;BME280;69114;49.108;8.280;2023-04-08T12:27:27;101055.00;;;13.32;42.70
79639;BME280;69114;49.108;8.280;2023-04-08T12:29:52;101040.41;;;13.36;41.68
79639;BME280;69114;49.108;8.280;2023-04-08T12:32:17;101049.03;;;13.62;41.19
79639;BME280;69114;49.108;8.280;2023-04-08T12:34:43;101050.78;;;13.35;40.62
79639;BME280;69114;49.108;8.280;2023-04-08T12:37:09;101046.50;;;13.10;41.65
79639;BME280;69114;49.108;8.280;2023-04-08T12:39:34;101050.78;;;13.71;42.20
79639;BME280;69114;49.108;8.280;2023-04-08T12:42:00;101044.78;;;13.64;41.80
79639;BME280;69114;49.108;8.280;2023-04-08T12:44:25;101058.59;;;13.61;42.32
79639;BME280;69114;49.108;8.280;2023-04-08T12:46:50;101052.03;;;13.65;42.37
79639;BME280;69114;49.108;8.280;2023-04-08T12:49:16;101052.75;;;13.35;41.41
79639;BME280;69114;49.108;8.280;2023-04-08T12:51:41;101058.34;;;13.35;42.56
79639;BME280;69114;49.108;8.280;2023-04-08T12:54:06;101054.28;;;13.41;42.74
79639;BME280;69114;49.108;8.280;2023-04-08T12:56:33;101056.34;;;12.94;42.44
79639;BME280;69114;49.108;8.280;2023-04-08T12:58:59;101055.81;;;13.19;43.05
79639;BME280;69114;49.108;8.280;2023-04-08T13:01:25;101053.88;;;13.33;43.49